createdAt,value
2022-11-20T00:01:34.790Z,16.63
2022-11-20T00:04:02.811Z,18.08
2022-11-20T00:06:32.807Z,15.15
2022-11-20T00:09:02.641Z,16.33
2022-11-20T00:11:32.264Z,17.25
2022-11-20T00:14:01.684Z,15.18
2022-11-20T00:16:31.801Z,17.38
2022-11-20T00:18:59.601Z,17.02
2022-11-20T00:21:28.946Z,15.07
2022-11-20T00:23:58.098Z,14.55
2022-11-20T00:26:30.109Z,15.25
2022-11-20T00:28:59.291Z,15.75
2022-11-20T00:31:28.324Z,15.40
2022-11-20T00:33:56.223Z,13.73
2022-11-20T00:36:26.146Z,15.77
2022-11-20T00:38:55.552Z,15.50
2022-11-20T00:41:24.722Z,14.43
2022-11-20T00:43:55.631Z,18.15
2022-11-20T00:46:26.118Z,16.70
2022-11-20T00:48:53.980Z,13.98
2022-11-20T00:51:24.661Z,15.95
2022-11-20T00:53:52.861Z,15.80
2022-11-20T00:56:21.702Z,22.13
2022-11-20T00:58:51.112Z,22.55
2022-11-20T01:01:24.984Z,22.45
2022-11-20T01:03:54.459Z,23.05
2022-11-20T01:06:25.296Z,20.05
2022-11-20T01:08:56.110Z,22.77
2022-11-20T01:11:26.038Z,21.88
2022-11-20T01:13:55.389Z,20.65
2022-11-20T01:16:28.170Z,24.63
2022-11-20T01:18:59.611Z,21.65
2022-11-20T01:21:29.023Z,22.85
2022-11-20T01:23:56.641Z,22.75
2022-11-20T01:26:26.320Z,23.42
2022-11-20T01:28:55.430Z,24.63
2022-11-20T01:31:27.551Z,23.98
2022-11-20T01:33:57.041Z,22.00
2022-11-20T01:36:26.730Z,20.88
2022-11-20T01:38:56.113Z,22.05
2022-11-20T01:41:42.959Z,19.95
2022-11-20T01:44:12.650Z,20.67
2022-11-20T01:46:50.365Z,17.75
2022-11-20T01:49:21.919Z,17.25
2022-11-20T01:54:24.563Z,16.27
2022-11-20T01:56:57.177Z,17.55
2022-11-20T01:59:26.678Z,16.65
2022-11-20T02:01:56.709Z,16.90
2022-11-20T02:04:25.145Z,17.40
2022-11-20T02:07:01.145Z,18.05
2022-11-20T02:09:30.766Z,18.08
2022-11-20T02:12:00.112Z,16.10
2022-11-20T02:14:30.197Z,16.05
2022-11-20T02:17:00.107Z,17.23
2022-11-20T02:19:29.579Z,17.38
2022-11-20T02:22:04.188Z,17.25
2022-11-20T02:24:33.371Z,17.35
2022-11-20T02:27:04.180Z,17.73
2022-11-20T02:29:35.737Z,15.88
2022-11-20T02:32:06.209Z,14.75
2022-11-20T02:34:34.105Z,15.95
2022-11-20T02:37:02.050Z,15.40
2022-11-20T02:39:34.095Z,16.08
2022-11-20T02:42:03.190Z,18.17
2022-11-20T02:44:33.070Z,17.00
2022-11-20T02:47:01.006Z,16.63
2022-11-20T02:49:30.243Z,15.95
2022-11-20T02:52:01.702Z,16.35
2022-11-20T02:54:31.789Z,14.57
2022-11-20T02:57:51.102Z,15.88
2022-11-20T03:00:44.180Z,16.45
2022-11-20T03:03:12.552Z,15.25
2022-11-20T03:05:40.165Z,16.35
2022-11-20T03:08:09.113Z,16.48
2022-11-20T03:10:36.698Z,16.27
2022-11-20T03:13:06.231Z,19.83
2022-11-20T03:15:33.824Z,23.67
2022-11-20T03:18:01.716Z,22.92
2022-11-20T03:20:34.069Z,22.15
2022-11-20T03:23:05.078Z,22.30
2022-11-20T03:25:33.094Z,21.25
2022-11-20T03:28:01.204Z,17.55
2022-11-20T03:33:48.501Z,15.48
2022-11-20T03:36:18.092Z,15.48
2022-11-20T03:38:47.225Z,15.80
2022-11-20T03:41:17.325Z,17.10
2022-11-20T03:43:53.092Z,16.80
2022-11-20T03:46:23.302Z,15.57
2022-11-20T03:48:52.372Z,14.70
2022-11-20T03:51:22.063Z,16.67
2022-11-20T03:53:51.140Z,15.40
2022-11-20T03:56:22.048Z,15.70
2022-11-20T03:58:51.072Z,15.15
2022-11-20T04:01:21.548Z,15.65
2022-11-20T04:03:51.452Z,16.45
2022-11-20T04:06:44.118Z,17.42
2022-11-20T04:09:13.238Z,15.60
2022-11-20T04:11:42.284Z,17.73
2022-11-20T04:14:16.360Z,17.77
2022-11-20T04:16:46.158Z,16.05
2022-11-20T04:19:17.894Z,15.73
2022-11-20T04:21:46.158Z,16.05
2022-11-20T04:24:15.803Z,18.42
2022-11-20T04:26:44.098Z,15.65
2022-11-20T04:29:13.614Z,17.65
2022-11-20T04:31:41.215Z,15.98
2022-11-20T04:34:09.336Z,16.15
2022-11-20T04:36:38.201Z,15.43
2022-11-20T04:39:08.109Z,17.15
2022-11-20T04:41:37.471Z,17.42
2022-11-20T04:44:06.411Z,16.42
2022-11-20T04:46:37.083Z,20.10
2022-11-20T04:49:06.087Z,20.02
2022-11-20T04:51:35.281Z,18.65
2022-11-20T04:54:05.239Z,17.23
2022-11-20T04:56:32.844Z,19.08
2022-11-20T04:59:03.064Z,18.55
2022-11-20T05:01:31.329Z,19.70
2022-11-20T05:03:59.498Z,18.27
2022-11-20T05:06:27.061Z,16.83
2022-11-20T05:08:54.633Z,21.05
2022-11-20T05:11:23.803Z,19.10
2022-11-20T05:13:53.064Z,20.90
2022-11-20T05:16:22.391Z,19.85
2022-11-20T05:18:51.159Z,18.92
2022-11-20T05:21:20.080Z,20.88
2022-11-20T05:23:49.115Z,19.35
2022-11-20T05:26:19.956Z,16.77
2022-11-20T05:28:50.064Z,23.73
2022-11-20T05:31:26.576Z,20.30
2022-11-20T05:33:56.021Z,16.48
2022-11-20T05:36:23.556Z,17.70
2022-11-20T05:38:52.341Z,18.85
2022-11-20T05:41:22.164Z,19.50
2022-11-20T05:43:51.710Z,18.42
2022-11-20T05:46:26.407Z,19.55
2022-11-20T05:49:22.331Z,18.55
2022-11-20T05:52:19.129Z,18.23
2022-11-20T05:54:47.113Z,17.77
2022-11-20T05:57:15.140Z,19.75
2022-11-20T05:59:44.857Z,19.83
2022-11-20T06:02:13.121Z,18.48
2022-11-20T06:04:41.539Z,19.23
2022-11-20T06:07:10.135Z,18.30
2022-11-20T06:09:37.739Z,18.25
2022-11-20T06:12:05.944Z,18.38
2022-11-20T06:14:33.552Z,18.85
2022-11-20T06:17:02.730Z,17.95
2022-11-20T06:19:31.096Z,17.67
2022-11-20T06:21:58.732Z,18.20
2022-11-20T06:24:27.429Z,19.75
2022-11-20T06:26:58.772Z,18.70
2022-11-20T06:29:31.330Z,18.88
2022-11-20T06:32:03.089Z,20.02
2022-11-20T06:34:30.651Z,17.27
2022-11-20T06:36:58.168Z,18.48
2022-11-20T06:39:31.077Z,18.92
2022-11-20T06:41:59.617Z,19.90
2022-11-20T06:44:27.712Z,17.77
2022-11-20T06:46:56.088Z,18.33
2022-11-20T06:49:26.165Z,20.60
2022-11-20T06:52:20.073Z,19.88
2022-11-20T06:54:47.645Z,20.20
2022-11-20T06:57:16.126Z,18.30
2022-11-20T06:59:43.674Z,19.52
2022-11-20T07:02:13.086Z,20.20
2022-11-20T07:04:43.898Z,22.17
2022-11-20T07:07:11.544Z,21.02
2022-11-20T07:09:39.115Z,23.00
2022-11-20T07:12:08.131Z,23.65
2022-11-20T07:14:37.483Z,24.02
2022-11-20T07:17:05.029Z,24.67
2022-11-20T07:19:32.582Z,22.20
2022-11-20T07:22:01.840Z,22.10
2022-11-20T07:24:30.127Z,23.83
2022-11-20T07:26:59.071Z,22.85
2022-11-20T07:29:26.662Z,20.83
2022-11-20T07:31:56.580Z,20.13
2022-11-20T07:34:26.428Z,21.50
2022-11-20T07:36:54.005Z,21.60
2022-11-20T07:39:24.099Z,20.40
2022-11-20T07:41:51.801Z,21.88
2022-11-20T07:44:19.303Z,17.17
2022-11-20T07:46:46.926Z,22.98
2022-11-20T07:49:14.480Z,20.10
2022-11-20T07:51:42.176Z,22.30
2022-11-20T07:54:10.054Z,22.35
2022-11-20T07:56:38.954Z,21.73
2022-11-20T07:59:12.681Z,24.20
2022-11-20T08:01:40.349Z,28.80
2022-11-20T08:04:08.749Z,27.38
2022-11-20T08:06:38.127Z,23.15
2022-11-20T08:09:05.744Z,22.63
2022-11-20T08:11:51.087Z,23.02
2022-11-20T08:14:25.061Z,22.98
2022-11-20T08:16:54.138Z,21.35
2022-11-20T08:19:22.754Z,23.05
2022-11-20T08:21:52.152Z,22.63
2022-11-20T08:24:21.433Z,21.30
2022-11-20T08:26:49.134Z,22.60
2022-11-20T08:29:17.639Z,19.25
2022-11-20T08:31:48.202Z,20.75
2022-11-20T08:34:19.224Z,18.83
2022-11-20T08:36:47.080Z,19.30
2022-11-20T08:39:15.051Z,21.25
2022-11-20T08:41:42.610Z,19.67
2022-11-20T08:44:10.224Z,20.55
2022-11-20T08:46:44.531Z,19.02
2022-11-20T08:49:15.601Z,20.20
2022-11-20T08:51:43.977Z,18.80
2022-11-20T08:54:12.088Z,21.88
2022-11-20T08:56:39.701Z,20.35
2022-11-20T08:59:43.886Z,22.23
2022-11-20T09:01:56.658Z,20.50
2022-11-20T09:04:26.084Z,20.70
2022-11-20T09:06:53.649Z,21.13
2022-11-20T09:09:21.631Z,19.50
2022-11-20T09:11:50.874Z,19.45
2022-11-20T09:14:18.489Z,21.48
2022-11-20T09:16:47.157Z,18.83
2022-11-20T09:22:03.890Z,21.13
2022-11-20T09:24:57.263Z,21.02
2022-11-20T09:27:25.636Z,21.88
2022-11-20T09:29:53.474Z,21.38
2022-11-20T09:32:20.989Z,24.40
2022-11-20T09:34:48.550Z,21.13
2022-11-20T09:37:17.458Z,23.23
2022-11-20T09:39:46.162Z,22.83
2022-11-20T09:42:35.682Z,23.33
2022-11-20T09:45:26.557Z,22.92
2022-11-20T09:48:32.306Z,21.75
2022-11-20T09:51:07.357Z,22.90
2022-11-20T09:53:47.556Z,22.42
2022-11-20T09:56:22.537Z,23.90
2022-11-20T09:58:55.147Z,22.65
2022-11-20T10:01:28.047Z,24.17
2022-11-20T10:03:59.315Z,23.60
2022-11-20T10:06:34.165Z,23.00
2022-11-20T10:09:18.759Z,24.02
2022-11-20T10:11:57.785Z,22.48
2022-11-20T10:14:38.126Z,27.15
2022-11-20T10:17:18.501Z,26.05
2022-11-20T10:19:59.068Z,24.60
2022-11-20T10:22:42.884Z,26.70
2022-11-20T10:25:17.104Z,26.60
2022-11-20T10:27:57.543Z,26.50
2022-11-20T10:30:50.059Z,26.98
2022-11-20T10:33:23.374Z,24.85
2022-11-20T10:35:57.044Z,26.25
2022-11-20T10:38:28.104Z,28.88
2022-11-20T10:41:19.351Z,25.35
2022-11-20T10:43:48.819Z,28.30
2022-11-20T10:46:20.101Z,26.95
2022-11-20T10:48:48.989Z,25.60
2022-11-20T10:51:29.210Z,24.77
2022-11-20T10:54:12.378Z,27.38
2022-11-20T10:56:49.636Z,26.23
2022-11-20T10:59:40.631Z,29.27
2022-11-20T11:02:20.251Z,27.20
2022-11-20T11:04:49.209Z,26.40
2022-11-20T11:07:21.121Z,27.25
2022-11-20T11:12:18.876Z,28.02
2022-11-20T11:14:49.120Z,25.60
2022-11-20T11:17:27.852Z,24.95
2022-11-20T11:20:03.062Z,29.80
2022-11-20T11:22:33.045Z,25.45
2022-11-20T11:25:02.223Z,26.98
2022-11-20T11:27:31.140Z,23.77
2022-11-20T11:30:15.095Z,26.05
2022-11-20T11:32:42.963Z,24.65
2022-11-20T11:35:22.899Z,22.30
2022-11-20T11:37:51.949Z,22.40
2022-11-20T11:40:24.946Z,22.15
2022-11-20T11:42:58.520Z,20.83
2022-11-20T11:45:25.940Z,18.67
2022-11-20T11:47:57.652Z,17.02
2022-11-20T11:53:04.057Z,15.73
2022-11-20T11:55:39.063Z,16.30
2022-11-20T11:58:21.138Z,13.93
2022-11-20T12:00:57.085Z,14.90
2022-11-20T12:03:30.428Z,13.07
2022-11-20T12:06:01.796Z,13.70
2022-11-20T12:08:34.659Z,12.55
2022-11-20T12:11:06.559Z,12.90
2022-11-20T12:13:46.177Z,11.32
2022-11-20T12:16:16.496Z,9.95
2022-11-20T12:18:44.911Z,9.30
2022-11-20T12:21:21.187Z,9.73
2022-11-20T12:24:08.663Z,11.00
2022-11-20T12:26:49.118Z,11.90
2022-11-20T12:29:29.506Z,12.15
2022-11-20T12:32:08.591Z,10.73
2022-11-20T12:34:54.463Z,10.27
2022-11-20T12:37:35.263Z,11.38
2022-11-20T12:40:19.581Z,13.27
2022-11-20T12:43:20.373Z,13.60
2022-11-20T12:46:20.162Z,12.70
2022-11-20T12:49:01.961Z,12.23
2022-11-20T12:51:49.256Z,13.88
2022-11-20T12:54:41.243Z,15.00
2022-11-20T12:57:18.396Z,17.75
2022-11-20T13:00:05.319Z,21.90
2022-11-20T13:02:48.583Z,18.60
2022-11-20T13:05:23.586Z,17.55
2022-11-20T13:07:54.889Z,18.25
2022-11-20T13:10:32.021Z,19.75
2022-11-20T13:13:05.896Z,17.92
2022-11-20T13:15:46.930Z,19.85
2022-11-20T13:18:16.307Z,17.73
2022-11-20T13:20:45.401Z,20.30
2022-11-20T13:23:24.506Z,19.35
2022-11-20T13:25:53.614Z,21.98
2022-11-20T13:28:30.911Z,20.10
2022-11-20T13:31:00.571Z,21.75
2022-11-20T13:33:32.686Z,22.83
2022-11-20T13:36:03.089Z,20.73
2022-11-20T13:38:50.311Z,23.83
2022-11-20T13:41:34.802Z,25.85
2022-11-20T13:44:12.677Z,21.83
2022-11-20T13:46:44.085Z,22.83
2022-11-20T13:49:24.230Z,22.60
2022-11-20T13:51:57.328Z,21.77
2022-11-20T13:54:52.825Z,23.98
2022-11-20T13:57:44.968Z,23.80
2022-11-20T14:00:16.701Z,24.60
2022-11-20T14:02:45.652Z,25.02
2022-11-20T14:05:22.357Z,23.15
2022-11-20T14:07:53.515Z,24.40
2022-11-20T14:10:25.891Z,26.83
2022-11-20T14:12:57.958Z,25.23
2022-11-20T14:15:33.098Z,25.05
2022-11-20T14:18:12.844Z,25.30
2022-11-20T14:20:43.440Z,26.65
2022-11-20T14:23:12.738Z,28.02
2022-11-20T14:25:45.096Z,24.73
2022-11-20T14:28:24.892Z,28.88
2022-11-20T14:30:53.067Z,25.85
2022-11-20T14:33:25.666Z,24.13
2022-11-20T14:35:57.631Z,26.15
2022-11-20T14:41:08.758Z,26.45
2022-11-20T14:43:38.580Z,25.30
2022-11-20T14:46:08.935Z,24.40
2022-11-20T14:48:44.149Z,25.65
2022-11-20T14:51:25.007Z,25.73
2022-11-20T14:53:55.220Z,25.23
2022-11-20T14:56:24.884Z,25.92
2022-11-20T14:59:00.100Z,25.25
2022-11-20T15:01:33.064Z,25.00
2022-11-20T15:04:08.407Z,25.50
2022-11-20T15:06:38.426Z,25.98
2022-11-20T15:09:07.194Z,24.80
2022-11-20T15:11:37.636Z,23.98
2022-11-20T15:14:08.768Z,23.90
2022-11-20T15:16:36.413Z,24.33
2022-11-20T15:19:17.562Z,23.13
2022-11-20T15:21:47.110Z,24.05
2022-11-20T15:24:15.108Z,23.02
2022-11-20T15:26:44.128Z,23.20
2022-11-20T15:29:13.132Z,23.45
2022-11-20T15:31:44.284Z,22.05
2022-11-20T15:34:13.535Z,22.42
2022-11-20T15:37:08.105Z,21.80
2022-11-20T15:39:35.905Z,23.60
2022-11-20T15:42:03.604Z,22.17
2022-11-20T15:44:31.152Z,23.48
2022-11-20T15:46:58.808Z,23.63
2022-11-20T15:49:26.496Z,23.00
2022-11-20T15:51:54.838Z,23.60
2022-11-20T15:54:24.924Z,21.00
2022-11-20T15:56:54.092Z,23.90
2022-11-20T15:59:22.140Z,21.27
2022-11-20T16:01:51.186Z,21.83
2022-11-20T16:04:19.426Z,21.63
2022-11-20T16:06:48.468Z,21.05
2022-11-20T16:09:16.641Z,21.95
2022-11-20T16:11:45.542Z,22.90
2022-11-20T16:14:32.095Z,23.55
2022-11-20T16:16:59.699Z,22.42
2022-11-20T16:19:27.463Z,21.10
2022-11-20T16:22:02.671Z,23.92
2022-11-20T16:24:31.272Z,25.85
2022-11-20T16:27:00.154Z,22.40
2022-11-20T16:29:27.709Z,22.77
2022-11-20T16:31:55.587Z,21.50
2022-11-20T16:34:23.443Z,23.15
2022-11-20T16:36:51.098Z,22.65
2022-11-20T16:39:23.308Z,22.80
2022-11-20T16:41:51.690Z,22.95
2022-11-20T16:44:22.483Z,23.92
2022-11-20T16:46:50.889Z,23.83
2022-11-20T16:49:18.418Z,23.75
2022-11-20T16:51:45.987Z,23.60
2022-11-20T16:54:17.921Z,23.55
2022-11-20T16:56:50.899Z,24.38
2022-11-20T16:59:20.049Z,23.83
2022-11-20T17:01:47.747Z,24.98
2022-11-20T17:04:15.783Z,27.15
2022-11-20T17:06:45.289Z,24.58
2022-11-20T17:09:13.729Z,25.27
2022-11-20T17:11:41.429Z,23.38
2022-11-20T17:14:10.160Z,23.55
2022-11-20T17:16:39.463Z,22.65
2022-11-20T17:19:07.286Z,22.83
2022-11-20T17:21:36.836Z,25.63
2022-11-20T17:24:06.392Z,27.88
2022-11-20T17:26:35.091Z,25.27
2022-11-20T17:29:05.920Z,24.33
2022-11-20T17:31:35.080Z,24.38
2022-11-20T17:34:04.049Z,24.10
2022-11-20T17:36:33.180Z,27.25
2022-11-20T17:39:02.733Z,23.70
2022-11-20T17:41:31.083Z,25.38
2022-11-20T17:44:02.043Z,21.80
2022-11-20T17:46:32.792Z,25.00
2022-11-20T17:49:00.766Z,23.77
2022-11-20T17:51:31.382Z,25.40
2022-11-20T17:54:02.414Z,24.73
2022-11-20T17:56:51.070Z,23.52
2022-11-20T17:59:21.035Z,24.92
2022-11-20T18:01:49.596Z,24.08
2022-11-20T18:04:18.061Z,27.73
2022-11-20T18:06:47.014Z,22.70
2022-11-20T18:09:15.395Z,25.17
2022-11-20T18:11:44.021Z,24.92
2022-11-20T18:14:32.539Z,22.20
2022-11-20T18:17:03.065Z,24.50
2022-11-20T18:19:38.751Z,25.73
2022-11-20T18:22:10.311Z,24.13
2022-11-20T18:24:39.261Z,25.85
2022-11-20T18:27:08.253Z,27.42
2022-11-20T18:29:36.140Z,26.45
2022-11-20T18:32:03.946Z,25.30
2022-11-20T18:34:31.892Z,26.67
2022-11-20T18:36:59.617Z,27.30
2022-11-20T18:39:29.166Z,25.17
2022-11-20T18:42:28.742Z,24.15
2022-11-20T18:44:56.403Z,26.05
2022-11-20T18:47:27.738Z,26.38
2022-11-20T18:49:57.774Z,27.33
2022-11-20T18:52:28.035Z,24.50
2022-11-20T18:54:57.437Z,26.92
2022-11-20T18:57:26.992Z,26.80
2022-11-20T18:59:56.306Z,25.67
2022-11-20T19:02:24.088Z,24.40
2022-11-20T19:04:51.673Z,27.52
2022-11-20T19:07:19.372Z,26.38
2022-11-20T19:09:52.353Z,25.25
2022-11-20T19:12:22.400Z,25.08
2022-11-20T19:14:51.163Z,24.58
2022-11-20T19:17:18.823Z,22.90
2022-11-20T19:19:50.390Z,21.30
2022-11-20T19:22:18.176Z,22.38
2022-11-20T19:24:45.801Z,22.67
2022-11-20T19:27:13.426Z,22.83
2022-11-20T19:29:42.933Z,20.98
2022-11-20T19:32:11.214Z,20.85
2022-11-20T19:34:38.793Z,21.88
2022-11-20T19:37:06.411Z,22.95
2022-11-20T19:39:35.391Z,21.80
2022-11-20T19:42:03.149Z,21.02
2022-11-20T19:44:32.769Z,19.00
2022-11-20T19:47:04.085Z,20.70
2022-11-20T19:49:37.264Z,19.42
2022-11-20T19:52:06.069Z,18.05
2022-11-20T19:54:33.635Z,19.13
2022-11-20T19:57:02.036Z,20.23
2022-11-20T19:59:29.571Z,19.05
2022-11-20T20:01:58.094Z,18.23
2022-11-20T20:04:27.041Z,18.98
2022-11-20T20:06:56.440Z,18.60
2022-11-20T20:09:26.318Z,18.45
2022-11-20T20:11:54.498Z,18.10
2022-11-20T20:14:22.091Z,19.58
2022-11-20T20:16:50.553Z,17.02
2022-11-20T20:19:19.104Z,17.83
2022-11-20T20:21:49.609Z,16.77
2022-11-20T20:24:17.562Z,17.80
2022-11-20T20:26:45.108Z,15.10
2022-11-20T20:29:13.661Z,15.50
2022-11-20T20:31:41.256Z,17.05
2022-11-20T20:34:08.797Z,16.45
2022-11-20T20:36:36.395Z,15.15
2022-11-20T20:39:05.370Z,15.07
2022-11-20T20:41:33.375Z,16.70
2022-11-20T20:44:21.070Z,15.60
2022-11-20T20:46:48.631Z,15.52
2022-11-20T20:49:16.566Z,16.38
2022-11-20T20:51:44.365Z,15.60
2022-11-20T20:54:13.342Z,16.05
2022-11-20T20:56:42.582Z,15.88
2022-11-20T20:59:10.187Z,17.63
2022-11-20T21:01:37.744Z,16.48
2022-11-20T21:04:06.062Z,18.00
2022-11-20T21:06:33.568Z,16.95
2022-11-20T21:09:01.434Z,15.80
2022-11-20T21:11:30.385Z,14.85
2022-11-20T21:13:58.052Z,15.82
2022-11-20T21:16:27.199Z,12.82
2022-11-20T21:19:20.185Z,14.43
2022-11-20T21:21:58.808Z,14.18
2022-11-20T21:24:27.332Z,15.48
2022-11-20T21:26:58.072Z,13.88
2022-11-20T21:29:27.387Z,15.15
2022-11-20T21:31:55.343Z,14.15
2022-11-20T21:34:23.761Z,15.45
2022-11-20T21:36:51.892Z,13.85
2022-11-20T21:39:21.038Z,14.88
2022-11-20T21:41:48.608Z,17.80
2022-11-20T21:44:31.003Z,16.40
2022-11-20T21:47:00.053Z,14.52
2022-11-20T21:49:27.967Z,16.00
2022-11-20T21:51:56.067Z,14.07
2022-11-20T21:54:24.863Z,13.43
2022-11-20T21:56:52.576Z,15.85
2022-11-20T21:59:22.080Z,15.95
2022-11-20T22:01:52.534Z,16.63
2022-11-20T22:04:21.447Z,17.30
2022-11-20T22:06:49.350Z,16.33
2022-11-20T22:09:17.070Z,16.75
2022-11-20T22:11:44.559Z,15.57
2022-11-20T22:14:23.545Z,15.55
2022-11-20T22:16:54.445Z,15.50
2022-11-20T22:19:24.585Z,14.75
2022-11-20T22:21:52.244Z,14.77
2022-11-20T22:24:21.690Z,13.98
2022-11-20T22:26:49.819Z,16.83
2022-11-20T22:29:20.667Z,15.75
2022-11-20T22:31:48.626Z,17.83
2022-11-20T22:34:17.540Z,17.52
2022-11-20T22:36:45.526Z,16.73
2022-11-20T22:39:13.189Z,17.67
2022-11-20T22:41:40.848Z,16.95
2022-11-20T22:44:08.888Z,19.17
2022-11-20T22:46:38.089Z,20.38
2022-11-20T22:49:08.287Z,17.13
2022-11-20T22:51:41.058Z,17.00
2022-11-20T22:54:10.061Z,18.60
2022-11-20T22:56:37.690Z,16.08
2022-11-20T22:59:05.786Z,17.38
2022-11-20T23:01:35.218Z,16.65
2022-11-20T23:04:04.595Z,17.55
2022-11-20T23:06:34.140Z,17.65
2022-11-20T23:09:03.681Z,17.90
2022-11-20T23:11:32.466Z,17.20
2022-11-20T23:14:02.219Z,19.08
2022-11-20T23:16:31.718Z,18.67
2022-11-20T23:19:02.143Z,18.92
2022-11-20T23:21:29.750Z,16.73
2022-11-20T23:23:58.540Z,20.05
2022-11-20T23:26:29.242Z,19.92
2022-11-20T23:28:59.161Z,17.20
2022-11-20T23:31:29.107Z,18.73
2022-11-20T23:33:58.311Z,18.92
2022-11-20T23:36:26.184Z,17.33
2022-11-20T23:38:54.134Z,17.95
2022-11-20T23:41:22.005Z,18.08
2022-11-20T23:43:50.926Z,19.65
2022-11-20T23:46:44.298Z,18.80
2022-11-20T23:49:11.904Z,19.25
2022-11-20T23:51:39.520Z,18.50
2022-11-20T23:54:08.056Z,18.50
2022-11-20T23:56:35.696Z,18.27
2022-11-20T23:59:07.248Z,18.95
